sensor_id;sensor_type;location;lat;lon;timestamp;pressure;altitude;pressure_sealevel;temperature;humidity
10700;BME280;5401;41.986;21.452;2024-01-30T00:00:49;100424.22;;;6.07;52.90
10700;BME280;5401;41.986;21.452;2024-01-30T00:03:17;100411.75;;;5.99;52.72
10700;BME280;5401;41.986;21.452;2024-01-30T00:05:45;100422.25;;;6.00;53.13
10700;BME280;5401;41.986;21.452;2024-01-30T00:08:14;100426.16;;;5.96;53.05
10700;BME280;5401;41.986;21.452;2024-01-30T00:10:42;100428.94;;;5.95;53.12
10700;BME280;5401;41.986;21.452;2024-01-30T00:13:09;100417.16;;;5.88;53.19
10700;BME280;5401;41.986;21.452;2024-01-30T00:15:37;100423.25;;;5.79;53.18
10700;BME280;5401;41.986;21.452;2024-01-30T00:18:04;100427.47;;;5.81;53.39
10700;BME280;5401;41.986;21.452;2024-01-30T00:20:32;100422.13;;;5.72;53.18
10700;BME280;5401;41.986;21.452;2024-01-30T00:23:00;100439.09;;;5.69;53.36
10700;BME280;5401;41.986;21.452;2024-01-30T00:25:29;100430.81;;;5.63;53.22
10700;BME280;5401;41.986;21.452;2024-01-30T00:27:56;100431.81;;;5.62;53.59
10700;BME280;5401;41.986;21.452;2024-01-30T00:30:24;100428.44;;;5.60;53.82
10700;BME280;5401;41.986;21.452;2024-01-30T00:32:51;100427.03;;;5.56;53.78
10700;BME280;5401;41.986;21.452;2024-01-30T00:35:19;100434.41;;;5.53;53.28
10700;BME280;5401;41.986;21.452;2024-01-30T00:37:48;100433.97;;;5.48;53.91
10700;BME280;5401;41.986;21.452;2024-01-30T00:40:15;100431.25;;;5.38;53.86
10700;BME280;5401;41.986;21.452;2024-01-30T00:42:45;100439.50;;;5.35;54.13
10700;BME280;5401;41.986;21.452;2024-01-30T00:45:13;100437.06;;;5.32;54.15
10700;BME280;5401;41.986;21.452;2024-01-30T00:47:41;100441.44;;;5.33;53.87
10700;BME280;5401;41.986;21.452;2024-01-30T00:50:09;100392.97;;;5.00;54.17
10700;BME280;5401;41.986;21.452;2024-01-30T00:52:36;100387.94;;;4.97;54.39
10700;BME280;5401;41.986;21.452;2024-01-30T00:55:05;100437.75;;;5.25;54.13
10700;BME280;5401;41.986;21.452;2024-01-30T00:57:33;100441.34;;;5.24;54.13
10700;BME280;5401;41.986;21.452;2024-01-30T01:00:02;100427.03;;;5.16;54.51
10700;BME280;5401;41.986;21.452;2024-01-30T01:02:32;100440.56;;;5.13;54.82
10700;BME280;5401;41.986;21.452;2024-01-30T01:05:00;100442.50;;;5.11;54.55
10700;BME280;5401;41.986;21.452;2024-01-30T01:07:28;100444.00;;;5.04;54.53
10700;BME280;5401;41.986;21.452;2024-01-30T01:09:56;100443.03;;;5.05;54.73
10700;BME280;5401;41.986;21.452;2024-01-30T01:12:23;100438.81;;;5.02;55.25
10700;BME280;5401;41.986;21.452;2024-01-30T01:14:51;100432.22;;;4.97;54.43
10700;BME280;5401;41.986;21.452;2024-01-30T01:17:20;100442.22;;;4.94;54.46
10700;BME280;5401;41.986;21.452;2024-01-30T01:19:47;100434.50;;;4.91;55.46
10700;BME280;5401;41.986;21.452;2024-01-30T01:22:15;100424.41;;;4.85;54.68
10700;BME280;5401;41.986;21.452;2024-01-30T01:24:43;100425.25;;;4.85;55.00
10700;BME280;5401;41.986;21.452;2024-01-30T01:27:10;100425.38;;;4.84;54.99
10700;BME280;5401;41.986;21.452;2024-01-30T01:29:38;100429.25;;;4.80;55.69
10700;BME280;5401;41.986;21.452;2024-01-30T01:32:05;100426.88;;;4.77;54.91
10700;BME280;5401;41.986;21.452;2024-01-30T01:34:34;100430.59;;;4.74;55.08
10700;BME280;5401;41.986;21.452;2024-01-30T01:37:02;100423.03;;;4.70;55.21
10700;BME280;5401;41.986;21.452;2024-01-30T01:39:31;100425.06;;;4.66;55.14
10700;BME280;5401;41.986;21.452;2024-01-30T01:41:58;100423.28;;;4.67;55.79
10700;BME280;5401;41.986;21.452;2024-01-30T01:44:26;100416.56;;;4.63;55.19
10700;BME280;5401;41.986;21.452;2024-01-30T01:46:54;100411.75;;;4.57;55.56
10700;BME280;5401;41.986;21.452;2024-01-30T01:49:24;100422.81;;;4.62;55.91
10700;BME280;5401;41.986;21.452;2024-01-30T01:51:54;100418.47;;;4.61;55.72
10700;BME280;5401;41.986;21.452;2024-01-30T01:54:23;100424.16;;;4.57;55.59
10700;BME280;5401;41.986;21.452;2024-01-30T01:56:52;100425.63;;;4.50;55.50
10700;BME280;5401;41.986;21.452;2024-01-30T01:59:20;100432.75;;;4.49;55.24
10700;BME280;5401;41.986;21.452;2024-01-30T02:01:48;100426.72;;;4.47;55.50
10700;BME280;5401;41.986;21.452;2024-01-30T02:04:16;100419.72;;;4.46;55.38
10700;BME280;5401;41.986;21.452;2024-01-30T02:06:43;100422.13;;;4.49;55.34
10700;BME280;5401;41.986;21.452;2024-01-30T02:09:12;100421.66;;;4.44;55.72
10700;BME280;5401;41.986;21.452;2024-01-30T02:11:40;100427.56;;;4.48;55.92
10700;BME280;5401;41.986;21.452;2024-01-30T02:14:08;100419.59;;;4.48;56.21
10700;BME280;5401;41.986;21.452;2024-01-30T02:16:35;100427.56;;;4.48;55.40
10700;BME280;5401;41.986;21.452;2024-01-30T02:19:03;100422.91;;;4.40;55.93
10700;BME280;5401;41.986;21.452;2024-01-30T02:21:32;100437.56;;;4.44;56.16
10700;BME280;5401;41.986;21.452;2024-01-30T02:24:01;100423.50;;;4.33;55.46
10700;BME280;5401;41.986;21.452;2024-01-30T02:26:30;100428.81;;;4.33;55.62
10700;BME280;5401;41.986;21.452;2024-01-30T02:28:57;100432.41;;;4.32;56.48
10700;BME280;5401;41.986;21.452;2024-01-30T02:31:25;100436.03;;;4.31;56.50
10700;BME280;5401;41.986;21.452;2024-01-30T02:33:52;100429.78;;;4.21;56.15
10700;BME280;5401;41.986;21.452;2024-01-30T02:36:20;100440.63;;;4.29;56.62
10700;BME280;5401;41.986;21.452;2024-01-30T02:38:49;100441.00;;;4.25;55.67
10700;BME280;5401;41.986;21.452;2024-01-30T02:41:16;100444.97;;;4.19;56.13
10700;BME280;5401;41.986;21.452;2024-01-30T02:43:44;100441.97;;;4.13;55.77
10700;BME280;5401;41.986;21.452;2024-01-30T02:46:10;100443.19;;;4.09;55.83
10700;BME280;5401;41.986;21.452;2024-01-30T02:48:38;100448.72;;;4.06;55.77
10700;BME280;5401;41.986;21.452;2024-01-30T02:51:05;100443.69;;;3.92;56.27
10700;BME280;5401;41.986;21.452;2024-01-30T02:53:33;100435.97;;;3.78;56.15
10700;BME280;5401;41.986;21.452;2024-01-30T02:56:02;100442.84;;;3.70;56.23
10700;BME280;5401;41.986;21.452;2024-01-30T02:58:30;100437.50;;;3.59;56.57
10700;BME280;5401;41.986;21.452;2024-01-30T03:00:57;100452.81;;;3.55;56.96
10700;BME280;5401;41.986;21.452;2024-01-30T03:03:25;100451.47;;;3.50;56.79
10700;BME280;5401;41.986;21.452;2024-01-30T03:05:52;100451.09;;;3.44;56.65
10700;BME280;5401;41.986;21.452;2024-01-30T03:08:20;100440.72;;;3.41;56.28
10700;BME280;5401;41.986;21.452;2024-01-30T03:10:48;100448.19;;;3.36;56.57
10700;BME280;5401;41.986;21.452;2024-01-30T03:13:17;100447.69;;;3.31;56.67
10700;BME280;5401;41.986;21.452;2024-01-30T03:15:44;100452.25;;;3.29;57.27
10700;BME280;5401;41.986;21.452;2024-01-30T03:18:12;100445.41;;;3.26;56.41
10700;BME280;5401;41.986;21.452;2024-01-30T03:20:39;100451.41;;;3.28;56.22
10700;BME280;5401;41.986;21.452;2024-01-30T03:23:06;100442.75;;;3.26;57.05
10700;BME280;5401;41.986;21.452;2024-01-30T03:25:34;100440.84;;;3.28;56.93
10700;BME280;5401;41.986;21.452;2024-01-30T03:28:02;100445.28;;;3.28;55.89
10700;BME280;5401;41.986;21.452;2024-01-30T03:30:31;100445.66;;;3.23;56.75
10700;BME280;5401;41.986;21.452;2024-01-30T03:32:58;100384.94;;;2.88;56.23
10700;BME280;5401;41.986;21.452;2024-01-30T03:35:25;100442.59;;;3.17;56.00
10700;BME280;5401;41.986;21.452;2024-01-30T03:37:53;100439.47;;;3.12;56.60
10700;BME280;5401;41.986;21.452;2024-01-30T03:40:20;100442.69;;;3.05;56.88
10700;BME280;5401;41.986;21.452;2024-01-30T03:42:48;100441.13;;;3.02;56.90
10700;BME280;5401;41.986;21.452;2024-01-30T03:45:15;100436.19;;;2.98;56.26
10700;BME280;5401;41.986;21.452;2024-01-30T03:47:47;100436.41;;;2.95;57.06
10700;BME280;5401;41.986;21.452;2024-01-30T03:50:14;100433.75;;;2.95;56.29
10700;BME280;5401;41.986;21.452;2024-01-30T03:52:42;100432.81;;;2.96;56.80
10700;BME280;5401;41.986;21.452;2024-01-30T03:55:09;100434.16;;;3.01;56.38
10700;BME280;5401;41.986;21.452;2024-01-30T03:57:37;100424.31;;;3.03;56.25
10700;BME280;5401;41.986;21.452;2024-01-30T04:00:05;100438.84;;;3.09;56.21
10700;BME280;5401;41.986;21.452;2024-01-30T04:02:33;100432.63;;;3.10;56.10
10700;BME280;5401;41.986;21.452;2024-01-30T04:05:03;100429.88;;;3.11;56.16
10700;BME280;5401;41.986;21.452;2024-01-30T04:07:30;100443.81;;;3.13;56.57
10700;BME280;5401;41.986;21.452;2024-01-30T04:09:58;100438.84;;;3.09;56.04
10700;BME280;5401;41.986;21.452;2024-01-30T04:12:25;100437.63;;;3.02;56.50
10700;BME280;5401;41.986;21.452;2024-01-30T04:14:53;100448.84;;;3.05;57.01
10700;BME280;5401;41.986;21.452;2024-01-30T04:17:29;100438.72;;;2.99;57.00
10700;BME280;5401;41.986;21.452;2024-01-30T04:19:57;100446.03;;;2.96;56.07
10700;BME280;5401;41.986;21.452;2024-01-30T04:22:26;100455.72;;;2.84;57.11
10700;BME280;5401;41.986;21.452;2024-01-30T04:24:53;100448.19;;;2.68;56.73
10700;BME280;5401;41.986;21.452;2024-01-30T04:27:21;100450.16;;;2.53;57.46
10700;BME280;5401;41.986;21.452;2024-01-30T04:29:48;100455.81;;;2.49;57.15
10700;BME280;5401;41.986;21.452;2024-01-30T04:32:16;100458.53;;;2.47;57.18
10700;BME280;5401;41.986;21.452;2024-01-30T04:34:44;100455.56;;;2.52;56.96
10700;BME280;5401;41.986;21.452;2024-01-30T04:37:11;100455.94;;;2.58;57.14
10700;BME280;5401;41.986;21.452;2024-01-30T04:39:40;100466.31;;;2.61;56.95
10700;BME280;5401;41.986;21.452;2024-01-30T04:42:08;100438.47;;;2.45;57.52
10700;BME280;5401;41.986;21.452;2024-01-30T04:44:35;100459.47;;;2.59;57.36
10700;BME280;5401;41.986;21.452;2024-01-30T04:47:03;100467.25;;;2.60;57.33
10700;BME280;5401;41.986;21.452;2024-01-30T04:49:32;100465.78;;;2.56;57.55
10700;BME280;5401;41.986;21.452;2024-01-30T04:51:59;100456.88;;;2.47;57.51
10700;BME280;5401;41.986;21.452;2024-01-30T04:54:27;100472.41;;;2.51;57.04
10700;BME280;5401;41.986;21.452;2024-01-30T04:56:56;100470.81;;;2.48;57.11
10700;BME280;5401;41.986;21.452;2024-01-30T04:59:23;100478.03;;;2.47;57.93
10700;BME280;5401;41.986;21.452;2024-01-30T05:01:51;100483.06;;;2.49;57.56
10700;BME280;5401;41.986;21.452;2024-01-30T05:04:18;100473.47;;;2.48;57.11
10700;BME280;5401;41.986;21.452;2024-01-30T05:06:46;100485.50;;;2.52;58.08
10700;BME280;5401;41.986;21.452;2024-01-30T05:09:13;100479.16;;;2.55;57.42
10700;BME280;5401;41.986;21.452;2024-01-30T05:11:41;100483.34;;;2.57;57.38
10700;BME280;5401;41.986;21.452;2024-01-30T05:14:10;100418.59;;;2.16;57.42
10700;BME280;5401;41.986;21.452;2024-01-30T05:16:38;100481.66;;;2.56;57.08
10700;BME280;5401;41.986;21.452;2024-01-30T05:19:05;100485.28;;;2.55;57.97
10700;BME280;5401;41.986;21.452;2024-01-30T05:21:33;100493.53;;;2.51;57.25
10700;BME280;5401;41.986;21.452;2024-01-30T05:24:00;100491.97;;;2.48;57.44
10700;BME280;5401;41.986;21.452;2024-01-30T05:26:28;100484.13;;;2.47;57.79
10700;BME280;5401;41.986;21.452;2024-01-30T05:28:56;100479.69;;;2.47;57.65
10700;BME280;5401;41.986;21.452;2024-01-30T05:31:26;100479.94;;;2.45;57.39
10700;BME280;5401;41.986;21.452;2024-01-30T05:33:54;100476.41;;;2.44;58.04
10700;BME280;5401;41.986;21.452;2024-01-30T05:36:21;100486.88;;;2.46;57.75
10700;BME280;5401;41.986;21.452;2024-01-30T05:38:49;100485.41;;;2.42;58.08
10700;BME280;5401;41.986;21.452;2024-01-30T05:41:16;100484.19;;;2.35;57.33
10700;BME280;5401;41.986;21.452;2024-01-30T05:43:44;100491.03;;;2.37;58.13
10700;BME280;5401;41.986;21.452;2024-01-30T05:46:11;100491.88;;;2.38;58.02
10700;BME280;5401;41.986;21.452;2024-01-30T05:48:40;100491.03;;;2.37;58.11
10700;BME280;5401;41.986;21.452;2024-01-30T05:51:08;100455.47;;;2.18;57.92
10700;BME280;5401;41.986;21.452;2024-01-30T05:53:36;100489.34;;;2.36;57.38
10700;BME280;5401;41.986;21.452;2024-01-30T05:56:04;100491.38;;;2.33;57.92
10700;BME280;5401;41.986;21.452;2024-01-30T05:58:31;100494.84;;;2.33;57.64
10700;BME280;5401;41.986;21.452;2024-01-30T06:00:59;100488.59;;;2.34;57.96
10700;BME280;5401;41.986;21.452;2024-01-30T06:03:26;100502.25;;;2.41;58.04
10700;BME280;5401;41.986;21.452;2024-01-30T06:05:55;100502.66;;;2.47;58.07
10700;BME280;5401;41.986;21.452;2024-01-30T06:08:22;100509.06;;;3.02;57.34
10700;BME280;5401;41.986;21.452;2024-01-30T06:10:50;100504.13;;;3.76;56.33
10700;BME280;5401;41.986;21.452;2024-01-30T06:13:18;100507.59;;;3.66;56.27
10700;BME280;5401;41.986;21.452;2024-01-30T06:15:45;100505.25;;;3.40;56.21
10700;BME280;5401;41.986;21.452;2024-01-30T06:18:13;100526.38;;;3.29;56.18
10700;BME280;5401;41.986;21.452;2024-01-30T06:20:40;100506.69;;;4.10;56.59
10700;BME280;5401;41.986;21.452;2024-01-30T06:23:09;100518.84;;;5.18;54.97
10700;BME280;5401;41.986;21.452;2024-01-30T06:25:38;100516.63;;;6.15;53.90
10700;BME280;5401;41.986;21.452;2024-01-30T06:28:06;100518.59;;;7.38;52.56
10700;BME280;5401;41.986;21.452;2024-01-30T06:30:33;100514.97;;;8.48;50.06
10700;BME280;5401;41.986;21.452;2024-01-30T06:33:01;100509.97;;;9.50;49.37
10700;BME280;5401;41.986;21.452;2024-01-30T06:35:28;100516.25;;;10.59;47.34
10700;BME280;5401;41.986;21.452;2024-01-30T06:37:56;100520.75;;;11.56;45.88
10700;BME280;5401;41.986;21.452;2024-01-30T06:40:26;100515.31;;;12.27;44.72
10700;BME280;5401;41.986;21.452;2024-01-30T06:42:53;100527.78;;;12.82;44.20
10700;BME280;5401;41.986;21.452;2024-01-30T06:45:21;100532.47;;;13.48;42.39
10700;BME280;5401;41.986;21.452;2024-01-30T06:47:48;100515.72;;;14.19;42.02
10700;BME280;5401;41.986;21.452;2024-01-30T06:50:16;100525.06;;;14.74;41.22
10700;BME280;5401;41.986;21.452;2024-01-30T06:52:43;100520.56;;;15.24;39.98
10700;BME280;5401;41.986;21.452;2024-01-30T06:55:11;100519.97;;;15.63;39.48
10700;BME280;5401;41.986;21.452;2024-01-30T06:57:40;100517.84;;;16.21;38.47
10700;BME280;5401;41.986;21.452;2024-01-30T07:00:08;100521.69;;;16.33;38.26
10700;BME280;5401;41.986;21.452;2024-01-30T07:02:35;100533.78;;;16.16;38.21
10700;BME280;5401;41.986;21.452;2024-01-30T07:05:04;100518.28;;;16.24;38.08
10700;BME280;5401;41.986;21.452;2024-01-30T07:07:31;100513.66;;;16.45;37.82
10700;BME280;5401;41.986;21.452;2024-01-30T07:09:59;100510.78;;;16.80;37.43
10700;BME280;5401;41.986;21.452;2024-01-30T07:12:26;100519.34;;;16.90;37.15
10700;BME280;5401;41.986;21.452;2024-01-30T07:14:55;100520.44;;;17.42;35.89
10700;BME280;5401;41.986;21.452;2024-01-30T07:17:25;100515.63;;;17.38;35.53
10700;BME280;5401;41.986;21.452;2024-01-30T07:19:52;100514.22;;;16.68;35.81
10700;BME280;5401;41.986;21.452;2024-01-30T07:22:20;100515.53;;;15.35;37.74
10700;BME280;5401;41.986;21.452;2024-01-30T07:24:47;100523.13;;;14.03;39.05
10700;BME280;5401;41.986;21.452;2024-01-30T07:27:15;100527.75;;;12.74;40.69
10700;BME280;5401;41.986;21.452;2024-01-30T07:29:43;100532.66;;;11.93;42.28
10700;BME280;5401;41.986;21.452;2024-01-30T07:32:12;100526.53;;;11.28;42.77
10700;BME280;5401;41.986;21.452;2024-01-30T07:34:40;100528.81;;;10.59;44.39
10700;BME280;5401;41.986;21.452;2024-01-30T07:37:07;100522.94;;;10.22;45.30
10700;BME280;5401;41.986;21.452;2024-01-30T07:39:35;100531.75;;;9.97;46.11
10700;BME280;5401;41.986;21.452;2024-01-30T07:42:03;100528.44;;;9.61;46.27
10700;BME280;5401;41.986;21.452;2024-01-30T07:44:31;100531.81;;;9.46;46.85
10700;BME280;5401;41.986;21.452;2024-01-30T07:46:59;100522.09;;;9.45;46.55
10700;BME280;5401;41.986;21.452;2024-01-30T07:49:28;100524.78;;;9.62;46.75
10700;BME280;5401;41.986;21.452;2024-01-30T07:51:55;100524.56;;;9.56;47.98
10700;BME280;5401;41.986;21.452;2024-01-30T07:54:23;100527.16;;;9.48;47.82
10700;BME280;5401;41.986;21.452;2024-01-30T07:56:50;100526.59;;;9.44;47.34
10700;BME280;5401;41.986;21.452;2024-01-30T07:59:18;100527.91;;;9.58;47.69
10700;BME280;5401;41.986;21.452;2024-01-30T08:01:47;100521.16;;;9.71;47.05
10700;BME280;5401;41.986;21.452;2024-01-30T08:04:15;100528.44;;;9.61;48.22
10700;BME280;5401;41.986;21.452;2024-01-30T08:06:45;100525.59;;;9.62;47.40
10700;BME280;5401;41.986;21.452;2024-01-30T08:09:12;100527.19;;;9.73;48.11
10700;BME280;5401;41.986;21.452;2024-01-30T08:11:40;100529.94;;;9.81;47.20
10700;BME280;5401;41.986;21.452;2024-01-30T08:14:08;100531.84;;;9.88;47.20
10700;BME280;5401;41.986;21.452;2024-01-30T08:16:35;100524.13;;;9.85;47.84
10700;BME280;5401;41.986;21.452;2024-01-30T08:19:03;100526.09;;;9.83;47.77
10700;BME280;5401;41.986;21.452;2024-01-30T08:21:30;100535.50;;;9.87;47.58
10700;BME280;5401;41.986;21.452;2024-01-30T08:24:05;100528.59;;;9.94;47.85
10700;BME280;5401;41.986;21.452;2024-01-30T08:26:33;100532.34;;;10.09;46.66
10700;BME280;5401;41.986;21.452;2024-01-30T08:29:01;100525.50;;;10.06;46.87
10700;BME280;5401;41.986;21.452;2024-01-30T08:31:28;100527.34;;;10.06;46.76
10700;BME280;5401;41.986;21.452;2024-01-30T08:33:56;100522.19;;;10.12;46.95
10700;BME280;5401;41.986;21.452;2024-01-30T08:36:25;100519.38;;;10.22;46.71
10700;BME280;5401;41.986;21.452;2024-01-30T08:38:52;100513.78;;;10.32;47.11
10700;BME280;5401;41.986;21.452;2024-01-30T08:41:21;100518.50;;;10.38;46.74
10700;BME280;5401;41.986;21.452;2024-01-30T08:43:49;100517.22;;;10.50;46.50
10700;BME280;5401;41.986;21.452;2024-01-30T08:46:17;100497.69;;;10.66;46.24
10700;BME280;5401;41.986;21.452;2024-01-30T08:48:46;100508.69;;;10.96;46.08
10700;BME280;5401;41.986;21.452;2024-01-30T08:51:13;100504.91;;;11.22;45.98
10700;BME280;5401;41.986;21.452;2024-01-30T08:53:41;100512.81;;;11.31;45.87
10700;BME280;5401;41.986;21.452;2024-01-30T08:56:09;100505.94;;;11.37;45.80
10700;BME280;5401;41.986;21.452;2024-01-30T08:58:38;100516.56;;;11.54;45.70
10700;BME280;5401;41.986;21.452;2024-01-30T09:01:05;100507.84;;;11.76;45.60
10700;BME280;5401;41.986;21.452;2024-01-30T09:03:33;100510.19;;;11.94;44.85
10700;BME280;5401;41.986;21.452;2024-01-30T09:06:00;100504.66;;;11.88;44.77
10700;BME280;5401;41.986;21.452;2024-01-30T09:08:28;100505.84;;;11.70;44.93
10700;BME280;5401;41.986;21.452;2024-01-30T09:10:55;100501.28;;;11.62;45.19
10700;BME280;5401;41.986;21.452;2024-01-30T09:13:23;100499.97;;;11.66;45.05
10700;BME280;5401;41.986;21.452;2024-01-30T09:15:52;100511.19;;;11.62;44.98
10700;BME280;5401;41.986;21.452;2024-01-30T09:18:19;100498.75;;;11.53;44.80
10700;BME280;5401;41.986;21.452;2024-01-30T09:20:47;100496.59;;;11.48;44.89
10700;BME280;5401;41.986;21.452;2024-01-30T09:23:14;100497.41;;;11.49;44.74
10700;BME280;5401;41.986;21.452;2024-01-30T09:25:43;100492.41;;;11.54;44.73
10700;BME280;5401;41.986;21.452;2024-01-30T09:28:10;100493.25;;;11.78;44.34
10700;BME280;5401;41.986;21.452;2024-01-30T09:30:38;100491.22;;;11.88;44.08
10700;BME280;5401;41.986;21.452;2024-01-30T09:33:07;100493.72;;;12.05;43.69
10700;BME280;5401;41.986;21.452;2024-01-30T09:35:35;100492.31;;;12.33;43.71
10700;BME280;5401;41.986;21.452;2024-01-30T09:38:03;100484.81;;;12.20;43.64
10700;BME280;5401;41.986;21.452;2024-01-30T09:40:31;100480.13;;;11.99;43.56
10700;BME280;5401;41.986;21.452;2024-01-30T09:42:59;100478.59;;;12.12;43.69
10700;BME280;5401;41.986;21.452;2024-01-30T09:45:27;100482.94;;;12.29;43.86
10700;BME280;5401;41.986;21.452;2024-01-30T09:47:54;100473.69;;;12.31;43.50
10700;BME280;5401;41.986;21.452;2024-01-30T09:50:24;100461.81;;;12.18;43.09
10700;BME280;5401;41.986;21.452;2024-01-30T09:52:53;100465.63;;;12.23;42.42
10700;BME280;5401;41.986;21.452;2024-01-30T09:55:22;100464.44;;;12.26;42.53
10700;BME280;5401;41.986;21.452;2024-01-30T09:57:50;100463.28;;;12.28;43.01
10700;BME280;5401;41.986;21.452;2024-01-30T10:00:18;100455.41;;;12.19;42.80
10700;BME280;5401;41.986;21.452;2024-01-30T10:02:45;100461.81;;;12.18;43.31
10700;BME280;5401;41.986;21.452;2024-01-30T10:05:15;100449.38;;;12.17;42.65
10700;BME280;5401;41.986;21.452;2024-01-30T10:07:52;100424.41;;;12.09;42.55
10700;BME280;5401;41.986;21.452;2024-01-30T10:10:21;100434.13;;;12.10;42.72
10700;BME280;5401;41.986;21.452;2024-01-30T10:12:49;100443.50;;;12.13;41.90
10700;BME280;5401;41.986;21.452;2024-01-30T10:15:17;100436.81;;;12.10;42.73
10700;BME280;5401;41.986;21.452;2024-01-30T10:17:45;100433.94;;;12.11;42.21
10700;BME280;5401;41.986;21.452;2024-01-30T10:20:13;100434.13;;;12.10;41.95
10700;BME280;5401;41.986;21.452;2024-01-30T10:22:40;100430.47;;;12.03;41.82
10700;BME280;5401;41.986;21.452;2024-01-30T10:25:11;100419.34;;;12.06;41.73
10700;BME280;5401;41.986;21.452;2024-01-30T10:27:39;100414.97;;;12.20;41.87
10700;BME280;5401;41.986;21.452;2024-01-30T10:30:08;100374.50;;;12.22;42.09
10700;BME280;5401;41.986;21.452;2024-01-30T10:32:35;100414.50;;;12.55;41.64
10700;BME280;5401;41.986;21.452;2024-01-30T10:35:03;100404.91;;;12.60;41.63
10700;BME280;5401;41.986;21.452;2024-01-30T10:37:31;100396.63;;;12.62;41.88
10700;BME280;5401;41.986;21.452;2024-01-30T10:40:02;100381.38;;;12.62;40.60
10700;BME280;5401;41.986;21.452;2024-01-30T10:42:33;100386.53;;;12.64;41.22
10700;BME280;5401;41.986;21.452;2024-01-30T10:45:07;100377.88;;;12.54;40.53
10700;BME280;5401;41.986;21.452;2024-01-30T10:47:36;100337.72;;;12.30;41.38
10700;BME280;5401;41.986;21.452;2024-01-30T10:50:04;100386.28;;;12.51;40.69
10700;BME280;5401;41.986;21.452;2024-01-30T10:52:34;100377.66;;;12.63;40.74
10700;BME280;5401;41.986;21.452;2024-01-30T10:55:04;100373.56;;;12.75;41.03
10700;BME280;5401;41.986;21.452;2024-01-30T10:57:34;100371.50;;;12.85;40.46
10700;BME280;5401;41.986;21.452;2024-01-30T11:00:03;100358.78;;;12.71;40.82
10700;BME280;5401;41.986;21.452;2024-01-30T11:02:37;100355.44;;;12.69;40.72
10700;BME280;5401;41.986;21.452;2024-01-30T11:05:05;100337.28;;;12.71;40.03
10700;BME280;5401;41.986;21.452;2024-01-30T11:07:34;100351.53;;;12.80;39.93
10700;BME280;5401;41.986;21.452;2024-01-30T11:10:03;100350.19;;;12.76;40.98
10700;BME280;5401;41.986;21.452;2024-01-30T11:12:38;100347.84;;;12.81;39.79
10700;BME280;5401;41.986;21.452;2024-01-30T11:15:08;100354.94;;;12.96;39.65
10700;BME280;5401;41.986;21.452;2024-01-30T11:17:45;100338.88;;;13.10;39.36
10700;BME280;5401;41.986;21.452;2024-01-30T11:20:21;100318.97;;;12.75;39.52
10700;BME280;5401;41.986;21.452;2024-01-30T11:22:50;100339.78;;;12.81;39.20
10700;BME280;5401;41.986;21.452;2024-01-30T11:25:20;100315.91;;;12.55;39.78
10700;BME280;5401;41.986;21.452;2024-01-30T11:27:51;100331.06;;;12.79;40.03
10700;BME280;5401;41.986;21.452;2024-01-30T11:30:24;100317.38;;;12.88;39.83
10700;BME280;5401;41.986;21.452;2024-01-30T11:33:01;100307.31;;;13.04;39.08
10700;BME280;5401;41.986;21.452;2024-01-30T11:35:32;100309.22;;;13.18;39.47
10700;BME280;5401;41.986;21.452;2024-01-30T11:38:01;100302.22;;;13.31;39.53
10700;BME280;5401;41.986;21.452;2024-01-30T11:40:29;100300.09;;;13.41;39.00
10700;BME280;5401;41.986;21.452;2024-01-30T11:42:59;100295.25;;;13.51;38.69
10700;BME280;5401;41.986;21.452;2024-01-30T11:45:27;100295.72;;;13.54;39.50
10700;BME280;5401;41.986;21.452;2024-01-30T11:47:55;100288.56;;;13.47;38.87
10700;BME280;5401;41.986;21.452;2024-01-30T11:50:23;100286.66;;;13.55;39.74
10700;BME280;5401;41.986;21.452;2024-01-30T11:52:52;100279.88;;;13.59;38.38
10700;BME280;5401;41.986;21.452;2024-01-30T11:55:21;100284.72;;;13.64;39.36
10700;BME280;5401;41.986;21.452;2024-01-30T11:57:48;100275.78;;;13.78;39.42
10700;BME280;5401;41.986;21.452;2024-01-30T12:00:18;100283.56;;;13.87;38.44
10700;BME280;5401;41.986;21.452;2024-01-30T12:02:49;100277.34;;;13.87;38.73
10700;BME280;5401;41.986;21.452;2024-01-30T12:05:19;100263.72;;;13.74;38.27
10700;BME280;5401;41.986;21.452;2024-01-30T12:07:47;100270.84;;;13.81;38.31
10700;BME280;5401;41.986;21.452;2024-01-30T12:10:15;100266.97;;;13.84;39.06
10700;BME280;5401;41.986;21.452;2024-01-30T12:12:45;100267.88;;;13.90;38.35
10700;BME280;5401;41.986;21.452;2024-01-30T12:15:13;100248.22;;;13.90;38.11
10700;BME280;5401;41.986;21.452;2024-01-30T12:17:43;100253.66;;;13.96;38.17
10700;BME280;5401;41.986;21.452;2024-01-30T12:20:11;100249.28;;;13.95;37.95
10700;BME280;5401;41.986;21.452;2024-01-30T12:22:40;100236.72;;;13.82;37.60
10700;BME280;5401;41.986;21.452;2024-01-30T12:25:09;100223.81;;;13.63;38.04
10700;BME280;5401;41.986;21.452;2024-01-30T12:27:37;100241.97;;;13.75;38.39
10700;BME280;5401;41.986;21.452;2024-01-30T12:30:06;100233.06;;;13.75;38.38
10700;BME280;5401;41.986;21.452;2024-01-30T12:32:34;100220.94;;;13.64;37.56
10700;BME280;5401;41.986;21.452;2024-01-30T12:35:07;100228.53;;;13.61;37.24
10700;BME280;5401;41.986;21.452;2024-01-30T12:37:34;100234.88;;;13.68;38.10
10700;BME280;5401;41.986;21.452;2024-01-30T12:40:02;100221.97;;;13.63;38.10
10700;BME280;5401;41.986;21.452;2024-01-30T12:42:30;100214.53;;;13.51;38.61
10700;BME280;5401;41.986;21.452;2024-01-30T12:44:58;100221.28;;;13.47;38.24
10700;BME280;5401;41.986;21.452;2024-01-30T12:47:25;100229.00;;;13.50;37.11
10700;BME280;5401;41.986;21.452;2024-01-30T12:49:53;100218.81;;;13.46;38.15
10700;BME280;5401;41.986;21.452;2024-01-30T12:52:24;100189.75;;;13.27;37.76
10700;BME280;5401;41.986;21.452;2024-01-30T12:54:51;100210.81;;;13.23;37.16
10700;BME280;5401;41.986;21.452;2024-01-30T12:57:19;100225.19;;;13.30;37.05
10700;BME280;5401;41.986;21.452;2024-01-30T12:59:47;100177.91;;;13.07;37.11